Time;durP1;ratioP1;P1;durP2;ratioP2;P2;SDS_P1;SDS_P2;PMS_P1;PMS_P2;Temp;Humidity;BMP_temperature;BMP_pressure;BME280_temperature;BME280_humidity;BME280_pressure;Samples;Min_cycle;Max_cycle;Signal;HPM_P1;HPM_P2
2023/08/13 00:02:08;;;;;;;5.70;3.83;;;22.80;99.90;;;;;;7391644;19;20238;-74
2023/08/13 00:04:34;;;;;;;5.13;3.88;;;22.80;99.90;;;;;;7389673;19;20146;-73
2023/08/13 00:07:00;;;;;;;5.13;3.13;;;22.80;99.90;;;;;;7390785;19;20141;-73
2023/08/13 00:09:26;;;;;;;5.55;3.28;;;22.70;99.90;;;;;;7390524;19;20150;-74
2023/08/13 00:11:53;;;;;;;4.03;3.30;;;22.70;99.90;;;;;;7391813;19;20165;-75
2023/08/13 00:14:19;;;;;;;4.78;3.05;;;22.70;99.90;;;;;;7391159;19;20147;-74
2023/08/13 00:16:45;;;;;;;3.85;3.10;;;22.70;99.90;;;;;;7390345;19;20150;-76
2023/08/13 00:19:11;;;;;;;6.88;3.60;;;22.70;99.90;;;;;;7392012;19;20134;-74
2023/08/13 00:21:38;;;;;;;3.33;3.03;;;22.70;99.90;;;;;;7389607;19;20465;-74
2023/08/13 00:24:04;;;;;;;4.10;3.20;;;22.70;99.90;;;;;;7392550;19;20134;-75
2023/08/13 00:26:30;;;;;;;3.45;2.70;;;22.70;99.90;;;;;;7391374;19;20145;-76
2023/08/13 00:28:56;;;;;;;3.50;2.85;;;22.60;99.90;;;;;;7392113;19;20150;-74
2023/08/13 00:31:21;;;;;;;3.13;2.83;;;22.60;99.90;;;;;;7389558;19;20131;-74
2023/08/13 00:33:47;;;;;;;4.38;3.03;;;22.60;99.90;;;;;;7388093;19;20134;-74
2023/08/13 00:36:13;;;;;;;3.40;3.10;;;22.60;99.90;;;;;;7384318;19;20150;-75
2023/08/13 00:38:39;;;;;;;4.65;3.30;;;22.60;99.90;;;;;;7392898;19;20138;-75
2023/08/13 00:41:05;;;;;;;5.15;3.17;;;22.60;99.90;;;;;;7390009;19;20143;-75
2023/08/13 00:43:31;;;;;;;3.47;2.80;;;22.60;99.90;;;;;;7392654;19;20139;-74
2023/08/13 00:45:58;;;;;;;4.70;3.15;;;22.50;99.90;;;;;;7390965;19;20339;-73
2023/08/13 00:48:23;;;;;;;4.78;3.03;;;22.50;99.90;;;;;;7392294;19;20626;-73
2023/08/13 00:50:49;;;;;;;5.20;4.15;;;22.20;99.90;;;;;;7389515;19;20139;-75
2023/08/13 00:53:16;;;;;;;4.93;3.03;;;22.00;99.90;;;;;;7390763;19;20135;-75
2023/08/13 00:55:43;;;;;;;4.35;2.47;;;21.90;99.90;;;;;;7390355;19;20233;-75
2023/08/13 00:58:08;;;;;;;2.80;2.50;;;21.80;99.90;;;;;;7391867;19;20599;-74
2023/08/13 01:00:34;;;;;;;3.38;2.45;;;21.60;99.90;;;;;;7389902;19;20147;-73
2023/08/13 01:03:00;;;;;;;2.88;2.45;;;21.50;99.90;;;;;;7389755;19;20150;-74
2023/08/13 01:05:41;;;;;;;3.00;2.70;;;21.50;99.90;;;;;;7389353;19;20142;-74
2023/08/13 01:08:42;;;;;;;3.08;2.78;;;21.70;99.90;;;;;;7389703;19;20199;-75
2023/08/13 01:11:32;;;;;;;3.75;2.83;;;21.70;99.90;;;;;;7390488;19;20233;-74
2023/08/13 01:14:34;;;;;;;3.42;3.00;;;21.80;99.90;;;;;;7388049;19;20218;-75
2023/08/13 01:17:02;;;;;;;3.60;3.10;;;22.00;99.90;;;;;;7392553;19;20138;-74
2023/08/13 01:19:28;;;;;;;3.50;2.83;;;22.00;99.90;;;;;;7388044;19;20139;-74
2023/08/13 01:21:54;;;;;;;2.97;2.67;;;22.10;99.90;;;;;;7389454;19;20210;-74
2023/08/13 01:24:20;;;;;;;4.15;2.63;;;22.20;99.90;;;;;;7387265;19;20195;-75
2023/08/13 01:26:59;;;;;;;4.93;2.60;;;22.10;99.90;;;;;;7391888;19;20130;-74
2023/08/13 01:29:42;;;;;;;2.92;2.42;;;21.90;99.90;;;;;;7390787;19;20595;-74
2023/08/13 01:32:12;;;;;;;4.00;2.88;;;22.00;99.90;;;;;;7390186;19;20149;-75
2023/08/13 01:34:40;;;;;;;5.57;3.05;;;22.00;99.90;;;;;;7389336;19;20230;-74
2023/08/13 01:37:06;;;;;;;3.60;2.40;;;22.00;99.90;;;;;;7389451;19;20456;-75
2023/08/13 01:39:33;;;;;;;3.97;2.55;;;22.10;99.90;;;;;;7388267;19;20154;-74
2023/08/13 01:41:58;;;;;;;3.80;2.60;;;22.20;99.90;;;;;;7391260;19;20221;-74
2023/08/13 01:44:24;;;;;;;3.67;2.83;;;22.20;99.90;;;;;;7387196;19;20130;-76
2023/08/13 01:46:50;;;;;;;6.18;2.88;;;22.20;99.90;;;;;;7390577;19;20154;-74
2023/08/13 01:49:16;;;;;;;5.15;2.80;;;22.10;99.90;;;;;;7388095;19;20851;-74
2023/08/13 01:51:42;;;;;;;2.80;2.28;;;22.10;99.90;;;;;;7388287;19;20158;-73
2023/08/13 01:54:07;;;;;;;4.97;2.75;;;22.10;99.90;;;;;;7390629;19;20138;-73
2023/08/13 01:56:33;;;;;;;3.28;2.88;;;22.00;99.90;;;;;;7389371;19;20476;-72
2023/08/13 01:58:59;;;;;;;2.95;2.65;;;22.00;99.90;;;;;;7390334;19;20134;-74
2023/08/13 02:01:25;;;;;;;4.97;3.20;;;22.00;99.90;;;;;;7389039;19;20206;-73
2023/08/13 02:03:50;;;;;;;4.60;2.70;;;22.00;99.90;;;;;;7384945;19;20483;-74
2023/08/13 02:06:16;;;;;;;4.43;2.70;;;21.80;99.90;;;;;;7389388;19;20536;-73
2023/08/13 02:08:42;;;;;;;3.50;2.50;;;21.80;99.90;;;;;;7386454;19;20179;-73
2023/08/13 02:11:08;;;;;;;5.75;3.22;;;21.90;99.90;;;;;;7388689;19;20147;-73
2023/08/13 02:13:33;;;;;;;4.35;2.90;;;22.00;99.90;;;;;;7387678;19;20222;-72
2023/08/13 02:16:03;;;;;;;5.68;3.50;;;22.00;99.90;;;;;;7386971;19;20143;-74
2023/08/13 02:18:29;;;;;;;3.28;2.92;;;22.00;99.90;;;;;;7389548;19;20475;-74
2023/08/13 02:20:54;;;;;;;4.57;2.90;;;22.10;99.90;;;;;;7387507;19;20154;-74
2023/08/13 02:23:20;;;;;;;3.38;2.72;;;22.10;99.90;;;;;;7387736;19;20168;-72
2023/08/13 02:25:46;;;;;;;2.92;2.50;;;22.10;99.90;;;;;;7388814;19;20164;-73
2023/08/13 02:28:12;;;;;;;8.23;2.92;;;22.00;99.90;;;;;;7388968;19;20138;-73
2023/08/13 02:30:37;;;;;;;3.05;2.60;;;22.00;99.90;;;;;;7387960;19;20497;-73
2023/08/13 02:33:03;;;;;;;3.47;2.58;;;22.00;99.90;;;;;;7389542;19;20139;-74
2023/08/13 02:35:29;;;;;;;3.25;2.60;;;22.00;99.90;;;;;;7387914;19;20480;-75
2023/08/13 02:37:55;;;;;;;4.60;2.88;;;22.00;99.90;;;;;;7385167;19;20162;-73
2023/08/13 02:40:20;;;;;;;4.05;2.88;;;22.00;99.90;;;;;;7386206;19;20151;-72
2023/08/13 02:42:46;;;;;;;2.88;2.22;;;22.00;99.90;;;;;;7386472;19;20485;-73
2023/08/13 02:45:12;;;;;;;4.15;2.60;;;22.10;99.90;;;;;;7390140;19;20138;-73
2023/08/13 02:47:38;;;;;;;3.65;2.70;;;22.00;99.90;;;;;;7385124;19;20149;-74
2023/08/13 02:50:04;;;;;;;4.25;2.40;;;21.90;99.90;;;;;;7384933;19;20134;-74
2023/08/13 02:52:29;;;;;;;3.10;2.45;;;21.80;99.90;;;;;;7387617;19;20135;-73
2023/08/13 02:54:55;;;;;;;3.10;2.58;;;21.70;99.90;;;;;;7387830;19;20609;-74
2023/08/13 02:57:21;;;;;;;3.72;2.30;;;21.70;99.90;;;;;;7386403;19;20226;-74
2023/08/13 02:59:47;;;;;;;4.45;2.63;;;21.80;99.90;;;;;;7386809;19;20130;-74
2023/08/13 03:02:13;;;;;;;4.50;2.70;;;21.90;99.90;;;;;;7386261;19;20150;-73
2023/08/13 03:04:41;;;;;;;6.10;2.60;;;22.00;99.90;;;;;;7388245;19;20627;-73
2023/08/13 03:07:06;;;;;;;4.97;2.30;;;22.00;99.90;;;;;;7392226;19;20161;-74
2023/08/13 03:09:32;;;;;;;3.50;2.50;;;21.90;99.90;;;;;;7395127;19;20143;-72
2023/08/13 03:11:58;;;;;;;4.53;2.40;;;21.60;99.90;;;;;;7393226;19;20138;-73
2023/08/13 03:14:24;;;;;;;2.63;2.38;;;21.60;99.90;;;;;;7392388;19;20138;-73
2023/08/13 03:16:49;;;;;;;2.60;2.40;;;21.70;99.90;;;;;;7392545;19;20142;-73
2023/08/13 03:19:15;;;;;;;3.85;2.60;;;21.70;99.90;;;;;;7392634;19;20583;-73
2023/08/13 03:21:41;;;;;;;2.72;2.38;;;21.80;99.90;;;;;;7391660;19;20206;-73
2023/08/13 03:24:06;;;;;;;2.83;2.28;;;21.60;99.90;;;;;;7392826;19;20483;-73
2023/08/13 03:26:32;;;;;;;3.85;2.90;;;21.40;99.90;;;;;;7393402;19;20226;-73
2023/08/13 03:28:58;;;;;;;3.38;2.40;;;21.40;99.90;;;;;;7394166;19;20139;-72
2023/08/13 03:31:23;;;;;;;4.07;2.90;;;21.60;99.90;;;;;;7391242;19;20619;-73
2023/08/13 03:33:49;;;;;;;5.60;2.80;;;21.70;99.90;;;;;;7394996;19;20135;-73
2023/08/13 03:36:15;;;;;;;3.10;2.70;;;21.70;99.90;;;;;;7392401;19;20138;-72
2023/08/13 03:38:40;;;;;;;4.03;2.72;;;21.70;99.90;;;;;;7392857;19;20153;-72
2023/08/13 03:41:06;;;;;;;3.05;2.53;;;21.60;99.90;;;;;;7392585;19;20190;-72
2023/08/13 03:43:32;;;;;;;3.28;2.63;;;21.70;99.90;;;;;;7394992;19;20145;-73
2023/08/13 03:45:58;;;;;;;5.18;2.50;;;21.70;99.90;;;;;;7390381;19;20164;-72
2023/08/13 03:48:23;;;;;;;2.70;2.35;;;21.70;99.90;;;;;;7394226;19;20135;-72
2023/08/13 03:50:49;;;;;;;3.40;2.60;;;21.80;99.90;;;;;;7390546;19;20875;-72
2023/08/13 03:53:15;;;;;;;4.20;3.13;;;21.80;99.90;;;;;;7393896;19;20164;-72
2023/08/13 03:55:40;;;;;;;5.22;2.80;;;21.90;99.90;;;;;;7392166;19;20583;-72
2023/08/13 03:58:07;;;;;;;3.35;2.97;;;21.90;99.90;;;;;;7393861;19;20135;-73
2023/08/13 04:00:32;;;;;;;3.25;2.60;;;21.90;99.90;;;;;;7392740;19;20141;-73
2023/08/13 04:02:59;;;;;;;7.03;3.25;;;21.90;99.90;;;;;;7393360;19;20147;-72
2023/08/13 04:05:24;;;;;;;3.63;2.97;;;21.90;99.90;;;;;;7394110;19;20134;-72
2023/08/13 04:07:50;;;;;;;4.40;3.13;;;21.90;99.90;;;;;;7393331;19;20527;-74
2023/08/13 04:10:16;;;;;;;4.78;3.42;;;21.90;99.90;;;;;;7391822;19;20146;-72
2023/08/13 04:12:42;;;;;;;4.07;3.53;;;21.90;99.90;;;;;;7394288;19;20146;-72
2023/08/13 04:15:08;;;;;;;3.50;3.20;;;21.80;99.90;;;;;;7392444;19;20155;-73
2023/08/13 04:17:33;;;;;;;8.10;3.65;;;21.60;99.90;;;;;;7388673;19;20202;-72
2023/08/13 04:19:59;;;;;;;4.43;3.45;;;21.40;99.90;;;;;;7389463;19;20161;-72
2023/08/13 04:22:25;;;;;;;4.75;3.25;;;21.60;99.90;;;;;;7393358;19;20156;-73
2023/08/13 04:24:50;;;;;;;5.45;3.20;;;21.70;99.90;;;;;;7391778;19;20138;-72
2023/08/13 04:27:17;;;;;;;3.97;3.30;;;21.70;99.90;;;;;;7393724;19;20151;-74
2023/08/13 04:29:43;;;;;;;3.85;3.40;;;21.80;99.90;;;;;;7390390;19;20595;-72
2023/08/13 04:32:09;;;;;;;4.28;3.17;;;21.90;99.90;;;;;;7391126;19;20191;-72
2023/08/13 04:34:34;;;;;;;21.40;6.45;;;21.80;99.90;;;;;;7391938;19;20141;-72
2023/08/13 04:37:00;;;;;;;11.70;4.78;;;21.80;99.90;;;;;;7390728;19;20139;-73
2023/08/13 04:39:26;;;;;;;4.88;3.50;;;21.80;99.90;;;;;;7392202;19;20134;-72
2023/08/13 04:41:57;;;;;;;5.38;3.50;;;21.90;99.90;;;;;;7391212;19;20164;-72
2023/08/13 04:44:23;;;;;;;3.97;3.30;;;21.90;99.90;;;;;;7390855;19;20135;-72
2023/08/13 04:46:48;;;;;;;4.28;3.22;;;21.90;99.90;;;;;;7390941;19;20138;-72
2023/08/13 04:49:14;;;;;;;5.30;3.45;;;21.80;99.90;;;;;;7388053;19;20143;-72
2023/08/13 04:51:40;;;;;;;3.35;3.05;;;21.90;99.90;;;;;;7392702;19;20123;-72
2023/08/13 04:54:06;;;;;;;3.92;3.05;;;21.90;99.90;;;;;;7388527;19;20153;-72
2023/08/13 04:56:31;;;;;;;6.30;4.63;;;22.00;99.90;;;;;;7390840;19;20221;-74
2023/08/13 04:58:57;;;;;;;5.57;3.70;;;22.00;99.90;;;;;;7390260;19;20147;-73
2023/08/13 05:01:23;;;;;;;4.45;3.63;;;21.90;99.90;;;;;;7389926;19;20699;-73
2023/08/13 05:03:49;;;;;;;5.47;3.38;;;21.90;99.90;;;;;;7387856;19;20151;-74
2023/08/13 05:06:14;;;;;;;4.28;3.53;;;21.90;99.90;;;;;;7392607;19;20574;-73
2023/08/13 05:08:40;;;;;;;4.03;3.20;;;21.90;99.90;;;;;;7391549;19;20214;-73
2023/08/13 05:11:06;;;;;;;8.10;3.80;;;21.90;99.90;;;;;;7390588;19;20842;-73
2023/08/13 05:13:32;;;;;;;4.45;3.53;;;21.90;99.90;;;;;;7391675;19;20130;-74
2023/08/13 05:15:58;;;;;;;5.43;3.83;;;21.90;99.90;;;;;;7392210;19;20139;-73
2023/08/13 05:18:23;;;;;;;4.28;3.40;;;22.00;99.90;;;;;;7391836;19;20146;-72
2023/08/13 05:20:50;;;;;;;4.40;2.92;;;21.90;99.90;;;;;;7390045;19;20131;-73
2023/08/13 05:23:16;;;;;;;4.68;3.38;;;21.90;99.90;;;;;;7389531;19;20141;-72
2023/08/13 05:25:42;;;;;;;5.28;3.60;;;21.90;99.90;;;;;;7390697;19;20517;-72
2023/08/13 05:28:11;;;;;;;3.50;2.97;;;21.90;99.90;;;;;;7390220;19;20170;-73
2023/08/13 05:30:38;;;;;;;3.17;2.88;;;21.90;99.90;;;;;;7388165;19;20135;-72
2023/08/13 05:33:04;;;;;;;3.60;3.20;;;21.90;99.90;;;;;;7391381;19;20130;-73
2023/08/13 05:35:30;;;;;;;4.10;3.03;;;21.90;99.90;;;;;;7388582;19;20135;-73
2023/08/13 05:37:56;;;;;;;3.53;2.80;;;21.90;99.90;;;;;;7390785;19;20436;-74
2023/08/13 05:40:22;;;;;;;3.50;3.15;;;21.90;99.90;;;;;;7388581;19;20138;-74
2023/08/13 05:42:49;;;;;;;3.45;2.97;;;21.90;99.90;;;;;;7390323;19;20152;-74
2023/08/13 05:45:15;;;;;;;4.07;3.30;;;21.90;99.90;;;;;;7390560;19;20205;-74
2023/08/13 05:47:41;;;;;;;4.10;2.95;;;21.80;99.90;;;;;;7389129;19;20147;-73
2023/08/13 05:50:08;;;;;;;4.15;3.13;;;21.90;99.90;;;;;;7388553;19;20154;-74
2023/08/13 05:52:33;;;;;;;6.53;3.97;;;21.90;99.90;;;;;;7389423;19;20220;-73
2023/08/13 05:54:59;;;;;;;4.28;2.92;;;21.90;99.90;;;;;;7387709;19;20142;-74
2023/08/13 05:57:25;;;;;;;3.30;3.00;;;21.90;99.90;;;;;;7386729;19;20138;-74
2023/08/13 05:59:51;;;;;;;4.32;3.60;;;21.90;99.90;;;;;;7389666;19;20167;-75
2023/08/13 06:02:17;;;;;;;4.97;3.20;;;21.90;99.90;;;;;;7387864;19;20138;-74
2023/08/13 06:04:42;;;;;;;6.15;4.78;;;21.90;99.90;;;;;;7388742;19;20150;-74
2023/08/13 06:07:08;;;;;;;4.35;3.33;;;22.00;99.90;;;;;;7389646;19;20137;-75
2023/08/13 06:09:34;;;;;;;5.20;3.63;;;22.00;99.90;;;;;;7389839;19;20142;-74
2023/08/13 06:12:00;;;;;;;4.20;3.42;;;22.00;99.90;;;;;;7387741;19;20582;-75
2023/08/13 06:14:26;;;;;;;3.85;3.45;;;22.10;99.90;;;;;;7387629;19;20149;-74
2023/08/13 06:16:52;;;;;;;4.40;3.40;;;22.10;99.90;;;;;;7389106;19;20135;-74
2023/08/13 06:19:18;;;;;;;6.40;4.13;;;22.10;99.90;;;;;;7391748;19;20156;-77
2023/08/13 06:21:44;;;;;;;7.18;4.05;;;22.10;99.90;;;;;;7392039;19;20145;-77
2023/08/13 06:24:09;;;;;;;4.28;3.88;;;22.10;99.90;;;;;;7387842;19;20326;-76
2023/08/13 06:26:36;;;;;;;6.15;4.18;;;22.00;99.90;;;;;;7389737;19;20135;-76
2023/08/13 06:29:02;;;;;;;4.82;3.78;;;22.00;99.90;;;;;;7390492;19;20236;-75
2023/08/13 06:31:28;;;;;;;3.72;3.33;;;22.00;99.90;;;;;;7389910;19;20154;-76
2023/08/13 06:33:53;;;;;;;5.95;3.70;;;21.90;99.90;;;;;;7392397;19;20139;-77
2023/08/13 06:36:19;;;;;;;4.43;4.00;;;22.00;99.90;;;;;;7389682;19;20130;-76
2023/08/13 06:38:45;;;;;;;6.97;3.47;;;22.10;99.90;;;;;;7389838;19;20202;-76
2023/08/13 06:41:11;;;;;;;6.03;3.50;;;22.20;99.90;;;;;;7395954;19;20142;-76
2023/08/13 06:43:37;;;;;;;6.47;4.30;;;22.20;99.90;;;;;;7393998;19;20139;-76
2023/08/13 06:46:03;;;;;;;3.83;3.42;;;22.30;99.90;;;;;;7398195;19;20142;-78
2023/08/13 06:48:32;;;;;;;5.07;4.03;;;22.30;99.90;;;;;;7396178;19;20238;-79
2023/08/13 06:50:58;;;;;;;4.75;4.13;;;22.20;99.90;;;;;;7393993;19;20217;-79
2023/08/13 06:53:26;;;;;;;6.03;4.00;;;22.20;99.90;;;;;;7395213;19;20138;-78
2023/08/13 06:55:52;;;;;;;5.97;4.40;;;22.20;99.90;;;;;;7397614;19;20159;-75
2023/08/13 06:58:18;;;;;;;5.30;4.43;;;22.20;99.90;;;;;;7394812;19;20143;-74
2023/08/13 07:00:45;;;;;;;6.47;5.20;;;22.20;99.90;;;;;;7393240;19;20138;-75
2023/08/13 07:03:11;;;;;;;4.78;4.32;;;22.10;99.90;;;;;;7395566;19;20142;-73
2023/08/13 07:05:38;;;;;;;7.75;5.15;;;22.10;99.90;;;;;;7395215;19;20122;-74
2023/08/13 07:08:06;;;;;;;6.40;5.10;;;22.10;99.90;;;;;;7395380;19;20131;-75
2023/08/13 07:10:32;;;;;;;5.43;4.45;;;22.10;99.90;;;;;;7391798;19;20131;-72
2023/08/13 07:12:58;;;;;;;5.78;4.68;;;22.10;99.90;;;;;;7394303;19;20150;-73
2023/08/13 07:15:23;;;;;;;6.47;4.43;;;22.10;99.90;;;;;;7392306;19;20131;-71
2023/08/13 07:17:49;;;;;;;4.63;4.13;;;22.10;99.90;;;;;;7393107;19;20126;-72
2023/08/13 07:20:15;;;;;;;4.53;4.10;;;22.20;99.90;;;;;;7393665;19;20135;-72
2023/08/13 07:22:43;;;;;;;4.97;4.47;;;22.30;99.90;;;;;;7394476;19;20151;-72
2023/08/13 07:25:09;;;;;;;5.32;4.82;;;22.30;99.90;;;;;;7391221;19;20147;-73
2023/08/13 07:27:35;;;;;;;5.63;5.10;;;22.40;99.90;;;;;;7391962;19;20549;-72
2023/08/13 07:30:02;;;;;;;5.90;4.78;;;22.30;99.90;;;;;;7393857;19;20134;-72
2023/08/13 07:32:28;;;;;;;7.30;4.60;;;22.40;99.90;;;;;;7392442;19;20154;-73
2023/08/13 07:34:54;;;;;;;5.10;4.15;;;22.30;99.90;;;;;;7390451;19;20206;-72
2023/08/13 07:37:21;;;;;;;6.30;4.65;;;22.40;99.90;;;;;;7394649;19;20172;-74
2023/08/13 07:39:46;;;;;;;7.47;4.72;;;22.50;99.90;;;;;;7393168;19;20147;-73
2023/08/13 07:42:12;;;;;;;5.82;4.65;;;22.50;99.90;;;;;;7391989;19;20160;-72
2023/08/13 07:44:38;;;;;;;5.80;4.10;;;22.60;99.90;;;;;;7391035;19;20131;-73
2023/08/13 07:47:04;;;;;;;5.90;4.82;;;22.60;99.90;;;;;;7395049;19;20133;-73
2023/08/13 07:49:30;;;;;;;6.43;4.30;;;22.50;99.90;;;;;;7390538;19;20201;-73
2023/08/13 07:51:55;;;;;;;5.75;4.20;;;22.50;99.90;;;;;;7393578;19;20160;-76
2023/08/13 07:54:22;;;;;;;4.43;4.03;;;22.40;99.90;;;;;;7392779;19;20126;-73
2023/08/13 07:56:48;;;;;;;5.05;4.55;;;22.40;99.90;;;;;;7394889;19;20134;-73
2023/08/13 07:59:14;;;;;;;4.60;4.07;;;22.50;99.90;;;;;;7392072;19;20150;-75
2023/08/13 08:01:42;;;;;;;6.68;4.55;;;22.50;99.90;;;;;;7391509;19;20194;-73
2023/08/13 08:04:08;;;;;;;5.05;4.55;;;22.70;99.90;;;;;;7390518;19;20176;-71
2023/08/13 08:06:34;;;;;;;5.32;4.40;;;22.90;99.90;;;;;;7391507;19;20206;-73
2023/08/13 08:09:00;;;;;;;5.03;4.40;;;23.00;99.90;;;;;;7391147;19;20141;-72
2023/08/13 08:11:27;;;;;;;5.90;4.65;;;23.10;99.90;;;;;;7392393;19;20147;-72
2023/08/13 08:13:52;;;;;;;5.03;4.53;;;23.10;99.90;;;;;;7392188;19;20135;-74
2023/08/13 08:16:18;;;;;;;4.97;4.47;;;23.00;99.90;;;;;;7394010;19;20177;-73
2023/08/13 08:18:44;;;;;;;5.43;4.85;;;22.90;99.90;;;;;;7391951;19;20138;-73
2023/08/13 08:21:11;;;;;;;4.82;4.32;;;22.90;99.90;;;;;;7393625;19;20157;-73
2023/08/13 08:23:36;;;;;;;4.10;3.70;;;22.90;99.90;;;;;;7391166;19;20609;-72
2023/08/13 08:26:02;;;;;;;5.10;4.30;;;22.90;99.90;;;;;;7392884;19;20135;-73
2023/08/13 08:28:28;;;;;;;6.60;4.63;;;22.90;99.90;;;;;;7392198;19;20253;-73
2023/08/13 08:30:54;;;;;;;4.82;4.32;;;22.80;99.90;;;;;;7390726;19;20138;-73
2023/08/13 08:33:23;;;;;;;6.50;4.88;;;23.00;99.90;;;;;;7394976;19;20145;-73
2023/08/13 08:35:49;;;;;;;5.43;4.50;;;23.10;99.90;;;;;;7391802;19;20154;-72
2023/08/13 08:38:15;;;;;;;7.43;5.00;;;23.00;99.90;;;;;;7395124;19;20126;-73
2023/08/13 08:40:48;;;;;;;5.78;4.40;;;22.90;99.90;;;;;;7390056;19;20127;-75
2023/08/13 08:43:17;;;;;;;4.53;3.70;;;22.90;99.90;;;;;;7393475;19;20145;-74
2023/08/13 08:45:44;;;;;;;5.60;3.83;;;22.90;99.90;;;;;;7391046;19;20147;-74
2023/08/13 08:48:11;;;;;;;6.18;4.43;;;22.80;99.90;;;;;;7392093;19;20131;-74
2023/08/13 08:50:37;;;;;;;4.75;4.25;;;22.90;99.90;;;;;;7389774;19;20142;-73
2023/08/13 08:53:04;;;;;;;5.00;4.10;;;22.90;99.90;;;;;;7389832;19;20153;-73
2023/08/13 08:55:36;;;;;;;5.65;3.95;;;23.00;99.90;;;;;;7392911;19;20137;-72
2023/08/13 08:58:02;;;;;;;5.25;3.95;;;23.10;99.90;;;;;;7392137;19;20123;-72
2023/08/13 09:00:28;;;;;;;4.53;3.45;;;23.10;99.90;;;;;;7388356;19;20147;-71
2023/08/13 09:02:53;;;;;;;4.00;3.47;;;23.20;99.90;;;;;;7388463;19;20153;-72
2023/08/13 09:05:20;;;;;;;3.72;3.00;;;23.10;99.90;;;;;;7391184;19;20135;-73
2023/08/13 09:07:46;;;;;;;4.60;3.08;;;23.10;99.90;;;;;;7390030;19;20575;-73
2023/08/13 09:10:12;;;;;;;2.92;2.65;;;23.20;99.90;;;;;;7388056;19;20134;-72
2023/08/13 09:12:41;;;;;;;3.25;2.95;;;23.20;99.90;;;;;;7387425;19;20153;-72
2023/08/13 09:15:10;;;;;;;2.65;2.35;;;23.30;99.90;;;;;;7392384;19;20139;-73
2023/08/13 09:17:38;;;;;;;2.33;2.13;;;23.20;99.90;;;;;;7388611;19;20179;-72
2023/08/13 09:20:18;;;;;;;2.85;2.53;;;23.20;99.90;;;;;;7391028;19;20143;-74
2023/08/13 09:22:46;;;;;;;4.43;2.75;;;23.20;99.90;;;;;;7389545;19;20135;-72
2023/08/13 09:25:16;;;;;;;3.95;3.05;;;23.30;99.90;;;;;;7385995;19;20466;-73
2023/08/13 09:27:43;;;;;;;4.68;2.72;;;23.70;99.90;;;;;;7390371;19;20979;-74
2023/08/13 09:30:20;;;;;;;3.85;2.92;;;23.90;99.90;;;;;;7387840;19;20135;-71
2023/08/13 09:32:46;;;;;;;3.30;3.00;;;24.10;99.90;;;;;;7388141;19;20134;-72
2023/08/13 09:35:12;;;;;;;2.95;2.65;;;24.30;99.90;;;;;;7390476;19;20138;-74
2023/08/13 09:37:38;;;;;;;4.03;2.88;;;24.50;99.90;;;;;;7390187;19;20608;-73
2023/08/13 09:40:05;;;;;;;5.47;2.95;;;24.50;99.90;;;;;;7388002;19;20160;-71
2023/08/13 09:42:33;;;;;;;4.82;3.08;;;24.50;99.90;;;;;;7390949;19;20607;-72
2023/08/13 09:45:02;;;;;;;3.97;3.05;;;24.50;99.90;;;;;;7386306;19;20147;-70
2023/08/13 09:47:29;;;;;;;2.85;2.63;;;24.40;99.90;;;;;;7389115;19;20165;-71
2023/08/13 09:49:58;;;;;;;2.85;2.50;;;24.40;99.90;;;;;;7392036;19;20141;-73
2023/08/13 09:52:27;;;;;;;2.50;2.28;;;24.40;99.90;;;;;;7387510;19;20170;-73
2023/08/13 09:55:02;;;;;;;4.28;3.17;;;24.40;99.90;;;;;;7388777;19;20218;-72
2023/08/13 09:57:32;;;;;;;4.78;3.13;;;24.60;99.90;;;;;;7390236;19;20141;-75
2023/08/13 09:59:59;;;;;;;4.38;3.20;;;24.50;99.90;;;;;;7389378;19;20138;-76
2023/08/13 10:02:27;;;;;;;4.03;2.90;;;24.60;99.90;;;;;;7388975;19;20142;-74
2023/08/13 10:04:53;;;;;;;5.53;2.90;;;24.60;99.90;;;;;;7383969;19;20208;-74
2023/08/13 10:07:20;;;;;;;3.25;2.80;;;24.60;99.90;;;;;;7388758;19;20150;-74
2023/08/13 10:09:47;;;;;;;3.65;2.95;;;24.80;99.90;;;;;;7384918;19;20151;-74
2023/08/13 10:12:13;;;;;;;3.78;3.20;;;24.80;99.90;;;;;;7389333;19;20161;-75
2023/08/13 10:14:39;;;;;;;4.05;3.08;;;24.70;99.90;;;;;;7385534;19;20634;-75
2023/08/13 10:17:06;;;;;;;4.53;3.05;;;24.60;99.90;;;;;;7385902;19;20209;-74
2023/08/13 10:19:40;;;;;;;4.75;2.90;;;24.60;99.90;;;;;;7385134;19;20171;-76
2023/08/13 10:22:09;;;;;;;4.25;2.95;;;24.70;99.90;;;;;;7385962;19;20149;-75
2023/08/13 10:24:35;;;;;;;3.83;3.20;;;24.80;99.90;;;;;;7386670;19;20539;-74
2023/08/13 10:27:02;;;;;;;4.00;2.95;;;24.80;99.90;;;;;;7388914;19;20170;-75
2023/08/13 10:29:41;;;;;;;3.85;2.60;;;24.90;99.90;;;;;;7389774;19;20134;-74
2023/08/13 10:32:14;;;;;;;4.28;2.80;;;24.90;99.90;;;;;;7389882;19;20599;-75
2023/08/13 10:34:46;;;;;;;4.22;2.72;;;25.10;99.90;;;;;;7388901;19;20150;-75
2023/08/13 10:37:19;;;;;;;5.97;3.25;;;25.40;99.90;;;;;;7388854;19;20138;-75
2023/08/13 10:40:08;;;;;;;3.75;3.17;;;25.30;99.90;;;;;;7389600;19;20135;-74
2023/08/13 10:42:34;;;;;;;2.78;2.42;;;25.30;99.90;;;;;;7388463;19;20222;-75
2023/08/13 10:45:05;;;;;;;3.88;2.80;;;25.30;99.90;;;;;;7387374;19;20138;-74
2023/08/13 10:47:54;;;;;;;3.33;2.70;;;25.60;99.90;;;;;;7388228;19;20634;-76
2023/08/13 10:50:28;;;;;;;3.10;2.70;;;25.70;99.90;;;;;;7390355;19;20206;-75
2023/08/13 10:53:14;;;;;;;3.95;3.20;;;25.70;99.90;;;;;;7387892;19;20491;-75
2023/08/13 10:55:48;;;;;;;4.00;3.05;;;25.40;99.90;;;;;;7386893;19;20151;-74
2023/08/13 10:58:34;;;;;;;4.95;2.65;;;25.40;99.90;;;;;;7388051;19;20130;-76
2023/08/13 11:01:16;;;;;;;2.92;2.47;;;25.30;99.90;;;;;;7386450;19;20163;-74
2023/08/13 11:03:51;;;;;;;4.85;3.10;;;25.20;99.90;;;;;;7388087;19;20232;-76
2023/08/13 11:06:19;;;;;;;3.33;2.60;;;25.40;99.90;;;;;;7388167;19;20162;-75
2023/08/13 11:08:46;;;;;;;6.78;3.13;;;25.50;99.90;;;;;;7386815;19;20135;-75
2023/08/13 11:11:16;;;;;;;4.18;2.97;;;25.60;99.90;;;;;;7388089;19;20162;-75
2023/08/13 11:13:42;;;;;;;4.38;2.97;;;25.50;99.90;;;;;;7388339;19;20130;-74
2023/08/13 11:16:08;;;;;;;3.50;2.95;;;25.60;99.90;;;;;;7387890;19;20599;-75
2023/08/13 11:18:33;;;;;;;3.35;2.63;;;25.70;99.90;;;;;;7386262;19;20198;-74
2023/08/13 11:21:00;;;;;;;4.95;3.08;;;25.70;99.90;;;;;;7386579;19;20165;-74
2023/08/13 11:23:26;;;;;;;4.30;3.33;;;25.60;99.90;;;;;;7387817;19;20181;-74
2023/08/13 11:25:52;;;;;;;4.30;3.00;;;25.50;99.90;;;;;;7390211;19;20479;-74
2023/08/13 11:28:26;;;;;;;3.17;2.80;;;25.60;99.90;;;;;;7396177;19;20771;-75
2023/08/13 11:30:55;;;;;;;3.22;2.75;;;25.50;99.90;;;;;;7392448;19;20157;-76
2023/08/13 11:33:20;;;;;;;3.20;2.75;;;25.60;99.90;;;;;;7394846;19;20161;-75
2023/08/13 11:35:47;;;;;;;3.67;3.25;;;25.70;99.90;;;;;;7393037;19;20461;-73
2023/08/13 11:38:13;;;;;;;3.80;2.95;;;25.90;99.90;;;;;;7394180;19;20142;-75
2023/08/13 11:40:39;;;;;;;5.50;2.75;;;25.90;99.90;;;;;;7392452;19;20181;-75
2023/08/13 11:43:09;;;;;;;4.28;3.00;;;25.80;99.90;;;;;;7394862;19;20194;-75
2023/08/13 11:45:36;;;;;;;3.03;2.70;;;25.90;99.90;;;;;;7394641;19;20210;-74
2023/08/13 11:48:10;;;;;;;3.67;3.13;;;25.90;99.90;;;;;;7393712;19;20146;-74
2023/08/13 11:50:36;;;;;;;3.53;3.10;;;25.90;99.90;;;;;;7390216;19;20135;-75
2023/08/13 11:53:15;;;;;;;4.45;3.65;;;25.70;99.90;;;;;;7393328;19;20150;-75
2023/08/13 11:55:45;;;;;;;5.72;3.65;;;25.50;99.90;;;;;;7392288;19;20477;-75
2023/08/13 11:58:15;;;;;;;3.95;3.40;;;25.50;99.90;;;;;;7395178;19;20147;-73
2023/08/13 12:00:41;;;;;;;5.20;3.67;;;25.50;99.90;;;;;;7394337;19;20143;-74
2023/08/13 12:03:07;;;;;;;5.68;3.60;;;25.50;99.90;;;;;;7391775;19;20154;-74
2023/08/13 12:05:34;;;;;;;4.05;3.35;;;25.50;99.90;;;;;;7390825;19;20245;-74
2023/08/13 12:08:01;;;;;;;4.22;3.83;;;25.50;99.90;;;;;;7391760;19;20614;-74
2023/08/13 12:10:27;;;;;;;4.78;3.30;;;25.60;99.90;;;;;;7392604;19;20163;-74
2023/08/13 12:12:53;;;;;;;5.97;3.70;;;25.90;99.90;;;;;;7394532;19;20614;-75
2023/08/13 12:15:24;;;;;;;5.28;3.50;;;25.90;99.90;;;;;;7391657;19;20154;-74
2023/08/13 12:17:53;;;;;;;4.60;3.28;;;25.90;99.90;;;;;;7393030;19;20142;-74
2023/08/13 12:20:18;;;;;;;4.63;3.33;;;25.90;99.90;;;;;;7390806;19;20171;-74
2023/08/13 12:22:44;;;;;;;5.03;3.20;;;26.10;99.90;;;;;;7390428;19;20131;-73
2023/08/13 12:25:10;;;;;;;5.03;3.28;;;26.20;99.90;;;;;;7389434;19;20133;-74
2023/08/13 12:27:36;;;;;;;5.47;3.25;;;26.10;99.90;;;;;;7392247;19;20154;-74
2023/08/13 12:30:03;;;;;;;5.07;3.40;;;26.00;99.90;;;;;;7390613;19;20135;-73
2023/08/13 12:32:29;;;;;;;4.70;3.45;;;25.90;99.90;;;;;;7393502;19;20267;-72
2023/08/13 12:34:55;;;;;;;5.50;3.08;;;25.90;99.90;;;;;;7392181;19;20143;-74
2023/08/13 12:37:21;;;;;;;5.57;3.00;;;26.10;99.90;;;;;;7390654;19;20145;-75
2023/08/13 12:39:46;;;;;;;3.22;2.70;;;26.30;99.90;;;;;;7393934;19;20555;-74
2023/08/13 12:42:13;;;;;;;4.63;3.00;;;26.40;99.90;;;;;;7390753;19;20148;-74
2023/08/13 12:44:39;;;;;;;4.07;2.80;;;26.40;99.90;;;;;;7388560;19;20214;-75
2023/08/13 12:47:05;;;;;;;7.53;3.00;;;26.30;99.90;;;;;;7389475;19;20143;-73
2023/08/13 12:49:32;;;;;;;4.68;2.85;;;26.20;99.90;;;;;;7392241;19;20567;-74